sensor_id;sensor_type;location;lat;lon;timestamp;P1;durP1;ratioP1;P2;durP2;ratioP2
2488;SDS011;1255;48.716;9.124;2022-10-31T00:01:21;3.97;;;3.10;;
2488;SDS011;1255;48.716;9.124;2022-10-31T00:03:50;3.93;;;2.43;;
2488;SDS011;1255;48.716;9.124;2022-10-31T00:06:16;4.22;;;3.90;;
2488;SDS011;1255;48.716;9.124;2022-10-31T00:08:43;6.28;;;2.88;;
2488;SDS011;1255;48.716;9.124;2022-10-31T00:11:12;3.03;;;2.53;;
2488;SDS011;1255;48.716;9.124;2022-10-31T00:13:39;3.33;;;2.60;;
2488;SDS011;1255;48.716;9.124;2022-10-31T00:16:12;4.00;;;2.75;;
2488;SDS011;1255;48.716;9.124;2022-10-31T00:18:40;3.53;;;2.88;;
2488;SDS011;1255;48.716;9.124;2022-10-31T00:21:06;6.33;;;3.60;;
2488;SDS011;1255;48.716;9.124;2022-10-31T00:23:33;4.63;;;3.27;;
2488;SDS011;1255;48.716;9.124;2022-10-31T00:26:00;3.50;;;2.60;;
2488;SDS011;1255;48.716;9.124;2022-10-31T00:28:29;3.60;;;1.95;;
2488;SDS011;1255;48.716;9.124;2022-10-31T00:30:58;3.60;;;2.97;;
2488;SDS011;1255;48.716;9.124;2022-10-31T00:33:25;7.53;;;2.57;;
2488;SDS011;1255;48.716;9.124;2022-10-31T00:35:51;2.60;;;2.10;;
2488;SDS011;1255;48.716;9.124;2022-10-31T00:38:18;3.33;;;1.97;;
2488;SDS011;1255;48.716;9.124;2022-10-31T00:40:45;3.15;;;2.40;;
2488;SDS011;1255;48.716;9.124;2022-10-31T00:43:12;7.20;;;3.17;;
2488;SDS011;1255;48.716;9.124;2022-10-31T00:45:40;3.28;;;2.50;;
2488;SDS011;1255;48.716;9.124;2022-10-31T00:48:07;2.33;;;2.13;;
2488;SDS011;1255;48.716;9.124;2022-10-31T00:50:34;6.43;;;2.83;;
2488;SDS011;1255;48.716;9.124;2022-10-31T00:53:00;3.72;;;2.35;;
2488;SDS011;1255;48.716;9.124;2022-10-31T00:55:27;2.72;;;2.15;;
2488;SDS011;1255;48.716;9.124;2022-10-31T00:57:54;4.97;;;2.53;;
2488;SDS011;1255;48.716;9.124;2022-10-31T01:00:20;7.43;;;3.05;;
2488;SDS011;1255;48.716;9.124;2022-10-31T01:02:49;4.15;;;2.80;;
2488;SDS011;1255;48.716;9.124;2022-10-31T01:05:16;4.07;;;2.30;;
2488;SDS011;1255;48.716;9.124;2022-10-31T01:07:42;3.97;;;2.88;;
2488;SDS011;1255;48.716;9.124;2022-10-31T01:10:09;3.42;;;2.42;;
2488;SDS011;1255;48.716;9.124;2022-10-31T01:12:37;2.95;;;2.35;;
2488;SDS011;1255;48.716;9.124;2022-10-31T01:15:05;2.83;;;2.15;;
2488;SDS011;1255;48.716;9.124;2022-10-31T01:17:32;2.97;;;2.20;;
2488;SDS011;1255;48.716;9.124;2022-10-31T01:20:00;3.00;;;2.53;;
2488;SDS011;1255;48.716;9.124;2022-10-31T01:22:27;2.75;;;2.25;;
2488;SDS011;1255;48.716;9.124;2022-10-31T01:24:54;5.47;;;2.97;;
2488;SDS011;1255;48.716;9.124;2022-10-31T01:27:21;4.07;;;2.50;;
2488;SDS011;1255;48.716;9.124;2022-10-31T01:29:47;2.20;;;2.00;;
2488;SDS011;1255;48.716;9.124;2022-10-31T01:32:14;4.65;;;2.30;;
2488;SDS011;1255;48.716;9.124;2022-10-31T01:34:41;3.85;;;2.22;;
2488;SDS011;1255;48.716;9.124;2022-10-31T01:37:09;5.63;;;2.78;;
2488;SDS011;1255;48.716;9.124;2022-10-31T01:39:36;3.85;;;2.45;;
2488;SDS011;1255;48.716;9.124;2022-10-31T01:42:02;3.40;;;1.98;;
2488;SDS011;1255;48.716;9.124;2022-10-31T01:44:50;1.70;;;1.60;;
2488;SDS011;1255;48.716;9.124;2022-10-31T01:47:19;2.75;;;2.10;;
2488;SDS011;1255;48.716;9.124;2022-10-31T01:49:54;3.55;;;2.40;;
2488;SDS011;1255;48.716;9.124;2022-10-31T01:52:25;4.05;;;2.63;;
2488;SDS011;1255;48.716;9.124;2022-10-31T01:54:55;3.07;;;2.63;;
2488;SDS011;1255;48.716;9.124;2022-10-31T01:57:25;3.40;;;2.10;;
2488;SDS011;1255;48.716;9.124;2022-10-31T01:59:53;3.90;;;2.42;;
2488;SDS011;1255;48.716;9.124;2022-10-31T02:02:23;3.15;;;2.38;;
2488;SDS011;1255;48.716;9.124;2022-10-31T02:04:51;3.13;;;2.70;;
2488;SDS011;1255;48.716;9.124;2022-10-31T02:07:20;5.00;;;3.05;;
2488;SDS011;1255;48.716;9.124;2022-10-31T02:09:52;3.15;;;2.60;;
2488;SDS011;1255;48.716;9.124;2022-10-31T02:12:19;5.05;;;2.33;;
2488;SDS011;1255;48.716;9.124;2022-10-31T02:14:46;2.35;;;2.05;;
2488;SDS011;1255;48.716;9.124;2022-10-31T02:17:13;4.47;;;2.88;;
2488;SDS011;1255;48.716;9.124;2022-10-31T02:19:40;3.05;;;2.20;;
2488;SDS011;1255;48.716;9.124;2022-10-31T02:22:18;4.90;;;3.25;;
2488;SDS011;1255;48.716;9.124;2022-10-31T02:25:05;3.10;;;2.72;;
2488;SDS011;1255;48.716;9.124;2022-10-31T02:27:51;3.30;;;3.00;;
2488;SDS011;1255;48.716;9.124;2022-10-31T02:33:28;2.65;;;2.45;;
2488;SDS011;1255;48.716;9.124;2022-10-31T02:36:02;2.92;;;2.63;;
2488;SDS011;1255;48.716;9.124;2022-10-31T02:38:38;3.40;;;2.65;;
2488;SDS011;1255;48.716;9.124;2022-10-31T02:41:15;4.72;;;2.65;;
2488;SDS011;1255;48.716;9.124;2022-10-31T02:43:51;2.90;;;2.60;;
2488;SDS011;1255;48.716;9.124;2022-10-31T02:46:30;3.17;;;2.55;;
2488;SDS011;1255;48.716;9.124;2022-10-31T02:49:02;2.47;;;2.28;;
2488;SDS011;1255;48.716;9.124;2022-10-31T02:51:34;3.50;;;2.80;;
2488;SDS011;1255;48.716;9.124;2022-10-31T02:54:01;3.58;;;2.70;;
2488;SDS011;1255;48.716;9.124;2022-10-31T02:56:28;4.30;;;2.10;;
2488;SDS011;1255;48.716;9.124;2022-10-31T02:58:55;2.63;;;2.03;;
2488;SDS011;1255;48.716;9.124;2022-10-31T03:04:38;4.20;;;2.70;;
2488;SDS011;1255;48.716;9.124;2022-10-31T03:07:20;8.63;;;2.10;;
2488;SDS011;1255;48.716;9.124;2022-10-31T03:09:56;3.20;;;1.90;;
2488;SDS011;1255;48.716;9.124;2022-10-31T03:12:30;2.72;;;2.00;;
2488;SDS011;1255;48.716;9.124;2022-10-31T03:15:05;4.43;;;2.60;;
2488;SDS011;1255;48.716;9.124;2022-10-31T03:17:41;3.75;;;2.30;;
2488;SDS011;1255;48.716;9.124;2022-10-31T03:20:16;3.90;;;2.38;;
2488;SDS011;1255;48.716;9.124;2022-10-31T03:22:46;2.55;;;2.20;;
2488;SDS011;1255;48.716;9.124;2022-10-31T03:25:13;2.50;;;2.30;;
2488;SDS011;1255;48.716;9.124;2022-10-31T03:27:41;2.80;;;2.58;;
2488;SDS011;1255;48.716;9.124;2022-10-31T03:30:10;5.28;;;2.55;;
2488;SDS011;1255;48.716;9.124;2022-10-31T03:32:39;2.95;;;2.35;;
2488;SDS011;1255;48.716;9.124;2022-10-31T03:35:10;2.95;;;2.05;;
2488;SDS011;1255;48.716;9.124;2022-10-31T03:37:41;3.42;;;2.60;;
2488;SDS011;1255;48.716;9.124;2022-10-31T03:40:09;2.50;;;2.28;;
2488;SDS011;1255;48.716;9.124;2022-10-31T03:42:39;3.95;;;2.60;;
2488;SDS011;1255;48.716;9.124;2022-10-31T03:45:10;3.63;;;3.10;;
2488;SDS011;1255;48.716;9.124;2022-10-31T03:47:39;2.63;;;2.10;;
2488;SDS011;1255;48.716;9.124;2022-10-31T03:50:10;4.25;;;2.30;;
2488;SDS011;1255;48.716;9.124;2022-10-31T03:52:41;2.85;;;2.58;;
2488;SDS011;1255;48.716;9.124;2022-10-31T03:55:13;4.15;;;2.80;;
2488;SDS011;1255;48.716;9.124;2022-10-31T03:57:44;4.82;;;2.40;;
2488;SDS011;1255;48.716;9.124;2022-10-31T04:00:17;2.72;;;2.10;;
2488;SDS011;1255;48.716;9.124;2022-10-31T04:02:46;3.67;;;2.75;;
2488;SDS011;1255;48.716;9.124;2022-10-31T04:05:18;3.08;;;2.50;;
2488;SDS011;1255;48.716;9.124;2022-10-31T04:07:46;2.88;;;2.60;;
2488;SDS011;1255;48.716;9.124;2022-10-31T04:10:16;4.22;;;2.95;;
2488;SDS011;1255;48.716;9.124;2022-10-31T04:12:49;5.32;;;2.17;;
2488;SDS011;1255;48.716;9.124;2022-10-31T04:15:19;2.30;;;2.10;;
2488;SDS011;1255;48.716;9.124;2022-10-31T04:17:48;1.88;;;1.77;;
2488;SDS011;1255;48.716;9.124;2022-10-31T04:20:18;2.50;;;2.30;;
2488;SDS011;1255;48.716;9.124;2022-10-31T04:22:54;3.55;;;2.50;;
2488;SDS011;1255;48.716;9.124;2022-10-31T04:25:21;3.15;;;2.00;;
2488;SDS011;1255;48.716;9.124;2022-10-31T04:27:48;4.85;;;2.60;;
2488;SDS011;1255;48.716;9.124;2022-10-31T04:30:15;3.22;;;2.38;;
2488;SDS011;1255;48.716;9.124;2022-10-31T04:32:42;2.83;;;2.15;;
2488;SDS011;1255;48.716;9.124;2022-10-31T04:35:10;5.90;;;2.85;;
2488;SDS011;1255;48.716;9.124;2022-10-31T04:37:36;4.10;;;2.63;;
2488;SDS011;1255;48.716;9.124;2022-10-31T04:40:04;2.92;;;2.00;;
2488;SDS011;1255;48.716;9.124;2022-10-31T04:42:31;10.18;;;2.72;;
2488;SDS011;1255;48.716;9.124;2022-10-31T04:44:58;2.33;;;2.05;;
2488;SDS011;1255;48.716;9.124;2022-10-31T04:47:24;2.45;;;2.25;;
2488;SDS011;1255;48.716;9.124;2022-10-31T04:49:51;3.78;;;2.13;;
2488;SDS011;1255;48.716;9.124;2022-10-31T04:52:19;3.47;;;2.13;;
2488;SDS011;1255;48.716;9.124;2022-10-31T04:54:46;3.88;;;2.30;;
2488;SDS011;1255;48.716;9.124;2022-10-31T04:57:13;3.03;;;2.55;;
2488;SDS011;1255;48.716;9.124;2022-10-31T04:59:39;2.42;;;2.13;;
2488;SDS011;1255;48.716;9.124;2022-10-31T05:02:06;2.60;;;2.00;;
2488;SDS011;1255;48.716;9.124;2022-10-31T05:04:33;2.55;;;2.35;;
2488;SDS011;1255;48.716;9.124;2022-10-31T05:06:59;2.38;;;2.17;;
2488;SDS011;1255;48.716;9.124;2022-10-31T05:09:27;2.67;;;2.35;;
2488;SDS011;1255;48.716;9.124;2022-10-31T05:11:54;3.50;;;2.40;;
2488;SDS011;1255;48.716;9.124;2022-10-31T05:14:21;3.65;;;2.80;;
2488;SDS011;1255;48.716;9.124;2022-10-31T05:16:48;3.20;;;2.78;;
2488;SDS011;1255;48.716;9.124;2022-10-31T05:19:14;2.50;;;1.98;;
2488;SDS011;1255;48.716;9.124;2022-10-31T05:21:41;2.80;;;2.50;;
2488;SDS011;1255;48.716;9.124;2022-10-31T05:24:08;2.22;;;2.03;;
2488;SDS011;1255;48.716;9.124;2022-10-31T05:26:36;11.00;;;3.05;;
2488;SDS011;1255;48.716;9.124;2022-10-31T05:29:03;4.82;;;2.45;;
2488;SDS011;1255;48.716;9.124;2022-10-31T05:31:29;3.17;;;2.13;;
2488;SDS011;1255;48.716;9.124;2022-10-31T05:33:56;3.42;;;2.15;;
2488;SDS011;1255;48.716;9.124;2022-10-31T05:36:23;5.07;;;2.72;;
2488;SDS011;1255;48.716;9.124;2022-10-31T05:38:50;3.85;;;2.40;;
2488;SDS011;1255;48.716;9.124;2022-10-31T05:41:17;2.63;;;2.35;;
2488;SDS011;1255;48.716;9.124;2022-10-31T05:43:45;3.50;;;2.70;;
2488;SDS011;1255;48.716;9.124;2022-10-31T05:46:12;2.30;;;2.10;;
2488;SDS011;1255;48.716;9.124;2022-10-31T05:48:39;3.40;;;2.45;;
2488;SDS011;1255;48.716;9.124;2022-10-31T05:51:06;3.13;;;2.30;;
2488;SDS011;1255;48.716;9.124;2022-10-31T05:53:33;3.75;;;2.15;;
2488;SDS011;1255;48.716;9.124;2022-10-31T05:55:59;3.88;;;2.47;;
2488;SDS011;1255;48.716;9.124;2022-10-31T05:58:26;2.90;;;2.10;;
2488;SDS011;1255;48.716;9.124;2022-10-31T06:00:55;3.50;;;2.33;;
2488;SDS011;1255;48.716;9.124;2022-10-31T06:03:21;3.58;;;2.75;;
2488;SDS011;1255;48.716;9.124;2022-10-31T06:05:48;3.00;;;2.20;;
2488;SDS011;1255;48.716;9.124;2022-10-31T06:08:18;2.58;;;2.33;;
2488;SDS011;1255;48.716;9.124;2022-10-31T06:10:45;4.43;;;2.85;;
2488;SDS011;1255;48.716;9.124;2022-10-31T06:13:11;3.83;;;2.60;;
2488;SDS011;1255;48.716;9.124;2022-10-31T06:15:38;5.55;;;2.40;;
2488;SDS011;1255;48.716;9.124;2022-10-31T06:18:08;3.70;;;2.25;;
2488;SDS011;1255;48.716;9.124;2022-10-31T06:20:35;4.05;;;2.67;;
2488;SDS011;1255;48.716;9.124;2022-10-31T06:23:02;3.65;;;2.70;;
2488;SDS011;1255;48.716;9.124;2022-10-31T06:25:31;4.45;;;3.30;;
2488;SDS011;1255;48.716;9.124;2022-10-31T06:27:58;3.83;;;2.78;;
2488;SDS011;1255;48.716;9.124;2022-10-31T06:30:26;5.90;;;3.20;;
2488;SDS011;1255;48.716;9.124;2022-10-31T06:32:52;4.85;;;2.72;;
2488;SDS011;1255;48.716;9.124;2022-10-31T06:35:21;7.88;;;3.50;;
2488;SDS011;1255;48.716;9.124;2022-10-31T06:37:51;3.75;;;3.30;;
2488;SDS011;1255;48.716;9.124;2022-10-31T06:40:18;4.13;;;3.03;;
2488;SDS011;1255;48.716;9.124;2022-10-31T06:42:45;3.60;;;2.80;;
2488;SDS011;1255;48.716;9.124;2022-10-31T06:45:12;3.30;;;2.33;;
2488;SDS011;1255;48.716;9.124;2022-10-31T06:47:39;2.47;;;2.28;;
2488;SDS011;1255;48.716;9.124;2022-10-31T06:50:06;2.35;;;2.15;;
2488;SDS011;1255;48.716;9.124;2022-10-31T06:52:35;3.00;;;2.03;;
2488;SDS011;1255;48.716;9.124;2022-10-31T06:55:02;4.40;;;3.47;;
2488;SDS011;1255;48.716;9.124;2022-10-31T06:57:29;3.22;;;2.40;;
2488;SDS011;1255;48.716;9.124;2022-10-31T06:59:55;2.83;;;2.40;;
2488;SDS011;1255;48.716;9.124;2022-10-31T07:02:22;3.35;;;2.45;;
2488;SDS011;1255;48.716;9.124;2022-10-31T07:04:49;2.58;;;2.33;;
2488;SDS011;1255;48.716;9.124;2022-10-31T07:07:16;2.42;;;2.20;;
2488;SDS011;1255;48.716;9.124;2022-10-31T07:09:47;2.47;;;2.25;;
2488;SDS011;1255;48.716;9.124;2022-10-31T07:12:15;4.65;;;3.20;;
2488;SDS011;1255;48.716;9.124;2022-10-31T07:14:42;3.47;;;2.33;;
2488;SDS011;1255;48.716;9.124;2022-10-31T07:17:08;2.42;;;2.10;;
2488;SDS011;1255;48.716;9.124;2022-10-31T07:19:39;2.70;;;2.17;;
2488;SDS011;1255;48.716;9.124;2022-10-31T07:22:13;4.60;;;2.15;;
2488;SDS011;1255;48.716;9.124;2022-10-31T07:24:40;3.75;;;2.60;;
2488;SDS011;1255;48.716;9.124;2022-10-31T07:27:09;2.40;;;1.70;;
2488;SDS011;1255;48.716;9.124;2022-10-31T07:29:35;3.15;;;2.35;;
2488;SDS011;1255;48.716;9.124;2022-10-31T07:32:02;2.20;;;2.00;;
2488;SDS011;1255;48.716;9.124;2022-10-31T07:34:30;2.60;;;2.40;;
2488;SDS011;1255;48.716;9.124;2022-10-31T07:36:56;2.30;;;2.08;;
2488;SDS011;1255;48.716;9.124;2022-10-31T07:40:04;2.95;;;2.75;;
2488;SDS011;1255;48.716;9.124;2022-10-31T07:42:40;2.95;;;2.50;;
2488;SDS011;1255;48.716;9.124;2022-10-31T07:45:09;9.35;;;2.88;;
2488;SDS011;1255;48.716;9.124;2022-10-31T07:47:37;3.70;;;2.80;;
2488;SDS011;1255;48.716;9.124;2022-10-31T07:50:05;3.20;;;2.35;;
2488;SDS011;1255;48.716;9.124;2022-10-31T07:52:32;3.75;;;2.70;;
2488;SDS011;1255;48.716;9.124;2022-10-31T07:55:00;5.53;;;3.30;;
2488;SDS011;1255;48.716;9.124;2022-10-31T07:57:27;2.88;;;2.10;;
2488;SDS011;1255;48.716;9.124;2022-10-31T07:59:55;3.20;;;2.85;;
2488;SDS011;1255;48.716;9.124;2022-10-31T08:02:22;5.43;;;3.38;;
2488;SDS011;1255;48.716;9.124;2022-10-31T08:04:49;4.60;;;3.40;;
2488;SDS011;1255;48.716;9.124;2022-10-31T08:07:16;3.25;;;2.90;;
2488;SDS011;1255;48.716;9.124;2022-10-31T08:09:43;6.03;;;2.53;;
2488;SDS011;1255;48.716;9.124;2022-10-31T08:12:11;3.00;;;2.00;;
2488;SDS011;1255;48.716;9.124;2022-10-31T08:14:37;3.03;;;2.80;;
2488;SDS011;1255;48.716;9.124;2022-10-31T08:17:05;5.05;;;2.85;;
2488;SDS011;1255;48.716;9.124;2022-10-31T08:19:32;3.47;;;3.07;;
2488;SDS011;1255;48.716;9.124;2022-10-31T08:21:59;3.30;;;3.00;;
2488;SDS011;1255;48.716;9.124;2022-10-31T08:24:25;4.20;;;3.27;;
2488;SDS011;1255;48.716;9.124;2022-10-31T08:26:52;2.83;;;2.40;;
2488;SDS011;1255;48.716;9.124;2022-10-31T08:29:19;5.23;;;3.50;;
2488;SDS011;1255;48.716;9.124;2022-10-31T08:31:46;5.97;;;3.13;;
2488;SDS011;1255;48.716;9.124;2022-10-31T08:34:14;6.73;;;3.30;;
2488;SDS011;1255;48.716;9.124;2022-10-31T08:36:41;4.93;;;3.37;;
2488;SDS011;1255;48.716;9.124;2022-10-31T08:39:09;4.10;;;3.37;;
2488;SDS011;1255;48.716;9.124;2022-10-31T08:41:36;3.70;;;2.77;;
2488;SDS011;1255;48.716;9.124;2022-10-31T08:44:03;3.90;;;3.30;;
2488;SDS011;1255;48.716;9.124;2022-10-31T08:46:30;4.20;;;3.80;;
2488;SDS011;1255;48.716;9.124;2022-10-31T08:48:57;4.40;;;3.40;;
2488;SDS011;1255;48.716;9.124;2022-10-31T08:51:25;3.47;;;2.97;;
2488;SDS011;1255;48.716;9.124;2022-10-31T08:53:52;3.30;;;3.00;;
2488;SDS011;1255;48.716;9.124;2022-10-31T08:56:19;5.43;;;4.00;;
2488;SDS011;1255;48.716;9.124;2022-10-31T08:58:47;4.00;;;3.60;;
2488;SDS011;1255;48.716;9.124;2022-10-31T09:01:14;4.20;;;3.77;;
2488;SDS011;1255;48.716;9.124;2022-10-31T09:03:40;5.00;;;3.90;;
2488;SDS011;1255;48.716;9.124;2022-10-31T09:06:07;4.37;;;3.00;;
2488;SDS011;1255;48.716;9.124;2022-10-31T09:08:35;9.80;;;4.30;;
2488;SDS011;1255;48.716;9.124;2022-10-31T09:11:03;3.53;;;3.20;;
2488;SDS011;1255;48.716;9.124;2022-10-31T09:13:31;3.87;;;3.50;;
2488;SDS011;1255;48.716;9.124;2022-10-31T09:15:58;6.33;;;4.30;;
2488;SDS011;1255;48.716;9.124;2022-10-31T09:18:25;5.00;;;3.80;;
2488;SDS011;1255;48.716;9.124;2022-10-31T09:20:53;4.10;;;3.67;;
2488;SDS011;1255;48.716;9.124;2022-10-31T09:23:20;4.60;;;3.60;;
2488;SDS011;1255;48.716;9.124;2022-10-31T09:25:50;4.80;;;3.30;;
2488;SDS011;1255;48.716;9.124;2022-10-31T09:28:19;7.23;;;4.03;;
2488;SDS011;1255;48.716;9.124;2022-10-31T09:30:47;5.07;;;4.03;;
2488;SDS011;1255;48.716;9.124;2022-10-31T09:33:15;4.93;;;4.00;;
2488;SDS011;1255;48.716;9.124;2022-10-31T09:35:42;5.43;;;3.23;;
2488;SDS011;1255;48.716;9.124;2022-10-31T09:38:10;4.50;;;3.27;;
2488;SDS011;1255;48.716;9.124;2022-10-31T09:40:40;3.47;;;3.17;;
2488;SDS011;1255;48.716;9.124;2022-10-31T09:43:12;4.00;;;3.60;;
2488;SDS011;1255;48.716;9.124;2022-10-31T09:45:44;3.73;;;3.10;;
2488;SDS011;1255;48.716;9.124;2022-10-31T09:48:27;3.43;;;3.13;;
2488;SDS011;1255;48.716;9.124;2022-10-31T09:51:04;4.37;;;3.80;;
2488;SDS011;1255;48.716;9.124;2022-10-31T09:53:35;5.17;;;3.87;;
2488;SDS011;1255;48.716;9.124;2022-10-31T09:56:06;3.83;;;3.47;;
2488;SDS011;1255;48.716;9.124;2022-10-31T09:58:39;4.50;;;3.90;;
2488;SDS011;1255;48.716;9.124;2022-10-31T10:01:22;4.27;;;3.50;;
2488;SDS011;1255;48.716;9.124;2022-10-31T10:03:57;4.17;;;3.83;;
2488;SDS011;1255;48.716;9.124;2022-10-31T10:06:28;4.43;;;3.00;;
2488;SDS011;1255;48.716;9.124;2022-10-31T10:08:58;5.10;;;3.40;;
2488;SDS011;1255;48.716;9.124;2022-10-31T10:14:24;7.37;;;3.80;;
2488;SDS011;1255;48.716;9.124;2022-10-31T10:17:02;6.30;;;4.03;;
2488;SDS011;1255;48.716;9.124;2022-10-31T10:19:43;4.33;;;3.37;;
2488;SDS011;1255;48.716;9.124;2022-10-31T10:22:27;3.40;;;3.10;;
2488;SDS011;1255;48.716;9.124;2022-10-31T10:25:04;5.40;;;3.10;;
2488;SDS011;1255;48.716;9.124;2022-10-31T10:27:46;5.67;;;4.00;;
2488;SDS011;1255;48.716;9.124;2022-10-31T10:30:18;5.20;;;3.80;;
2488;SDS011;1255;48.716;9.124;2022-10-31T10:32:46;5.43;;;3.57;;
2488;SDS011;1255;48.716;9.124;2022-10-31T10:35:18;5.00;;;3.80;;
2488;SDS011;1255;48.716;9.124;2022-10-31T10:37:48;5.30;;;3.50;;
2488;SDS011;1255;48.716;9.124;2022-10-31T10:40:18;7.30;;;4.40;;
2488;SDS011;1255;48.716;9.124;2022-10-31T10:42:50;4.40;;;3.70;;
2488;SDS011;1255;48.716;9.124;2022-10-31T10:45:42;4.63;;;3.83;;
2488;SDS011;1255;48.716;9.124;2022-10-31T10:48:30;4.90;;;4.20;;
2488;SDS011;1255;48.716;9.124;2022-10-31T10:51:07;5.60;;;4.77;;
2488;SDS011;1255;48.716;9.124;2022-10-31T10:53:42;7.37;;;4.00;;
2488;SDS011;1255;48.716;9.124;2022-10-31T10:56:30;5.30;;;4.10;;
2488;SDS011;1255;48.716;9.124;2022-10-31T10:59:03;7.67;;;4.77;;
2488;SDS011;1255;48.716;9.124;2022-10-31T11:01:31;7.37;;;4.60;;
2488;SDS011;1255;48.716;9.124;2022-10-31T11:03:58;6.20;;;4.40;;
2488;SDS011;1255;48.716;9.124;2022-10-31T11:06:27;5.23;;;3.70;;
2488;SDS011;1255;48.716;9.124;2022-10-31T11:08:54;4.60;;;4.20;;
2488;SDS011;1255;48.716;9.124;2022-10-31T11:11:24;5.83;;;4.20;;
2488;SDS011;1255;48.716;9.124;2022-10-31T11:13:56;5.50;;;4.30;;
2488;SDS011;1255;48.716;9.124;2022-10-31T11:16:30;5.53;;;4.20;;
2488;SDS011;1255;48.716;9.124;2022-10-31T11:19:08;4.90;;;4.40;;
2488;SDS011;1255;48.716;9.124;2022-10-31T11:21:41;6.00;;;5.33;;
2488;SDS011;1255;48.716;9.124;2022-10-31T11:24:12;8.63;;;4.93;;
2488;SDS011;1255;48.716;9.124;2022-10-31T11:26:41;5.83;;;4.60;;
2488;SDS011;1255;48.716;9.124;2022-10-31T11:29:13;8.47;;;4.63;;
2488;SDS011;1255;48.716;9.124;2022-10-31T11:31:43;6.93;;;4.80;;
2488;SDS011;1255;48.716;9.124;2022-10-31T11:34:14;4.70;;;4.20;;
2488;SDS011;1255;48.716;9.124;2022-10-31T11:36:52;6.23;;;4.40;;
2488;SDS011;1255;48.716;9.124;2022-10-31T11:39:20;5.50;;;4.70;;
2488;SDS011;1255;48.716;9.124;2022-10-31T11:41:49;6.70;;;4.53;;
2488;SDS011;1255;48.716;9.124;2022-10-31T11:44:18;8.47;;;5.20;;
2488;SDS011;1255;48.716;9.124;2022-10-31T11:46:50;4.53;;;3.87;;
2488;SDS011;1255;48.716;9.124;2022-10-31T11:49:19;6.00;;;4.50;;
2488;SDS011;1255;48.716;9.124;2022-10-31T11:51:55;4.47;;;4.07;;
2488;SDS011;1255;48.716;9.124;2022-10-31T11:54:25;5.50;;;4.43;;
2488;SDS011;1255;48.716;9.124;2022-10-31T11:56:55;5.67;;;4.30;;
2488;SDS011;1255;48.716;9.124;2022-10-31T11:59:24;5.80;;;4.40;;
2488;SDS011;1255;48.716;9.124;2022-10-31T12:01:55;5.77;;;4.53;;
2488;SDS011;1255;48.716;9.124;2022-10-31T12:04:26;5.77;;;5.27;;
2488;SDS011;1255;48.716;9.124;2022-10-31T12:07:01;6.80;;;3.90;;
2488;SDS011;1255;48.716;9.124;2022-10-31T12:09:28;4.17;;;3.77;;
2488;SDS011;1255;48.716;9.124;2022-10-31T12:12:05;5.73;;;4.57;;
2488;SDS011;1255;48.716;9.124;2022-10-31T12:14:48;8.30;;;4.30;;
2488;SDS011;1255;48.716;9.124;2022-10-31T12:17:25;4.70;;;4.10;;
2488;SDS011;1255;48.716;9.124;2022-10-31T12:20:00;5.10;;;4.30;;
2488;SDS011;1255;48.716;9.124;2022-10-31T12:22:39;4.30;;;3.67;;
2488;SDS011;1255;48.716;9.124;2022-10-31T12:25:23;5.00;;;4.33;;
2488;SDS011;1255;48.716;9.124;2022-10-31T12:27:59;4.73;;;3.90;;
2488;SDS011;1255;48.716;9.124;2022-10-31T12:30:36;4.10;;;3.80;;
2488;SDS011;1255;48.716;9.124;2022-10-31T12:36:24;5.33;;;4.27;;
2488;SDS011;1255;48.716;9.124;2022-10-31T12:39:05;5.87;;;4.07;;
2488;SDS011;1255;48.716;9.124;2022-10-31T12:41:51;5.70;;;4.40;;
2488;SDS011;1255;48.716;9.124;2022-10-31T12:44:29;4.70;;;3.47;;
2488;SDS011;1255;48.716;9.124;2022-10-31T12:50:16;5.57;;;4.60;;
2488;SDS011;1255;48.716;9.124;2022-10-31T12:52:54;5.33;;;4.40;;
2488;SDS011;1255;48.716;9.124;2022-10-31T12:55:32;6.00;;;4.60;;
2488;SDS011;1255;48.716;9.124;2022-10-31T12:58:20;3.50;;;3.10;;
2488;SDS011;1255;48.716;9.124;2022-10-31T13:00:51;5.70;;;3.70;;
2488;SDS011;1255;48.716;9.124;2022-10-31T13:03:29;5.17;;;3.80;;
2488;SDS011;1255;48.716;9.124;2022-10-31T13:06:02;5.83;;;3.43;;
2488;SDS011;1255;48.716;9.124;2022-10-31T13:08:33;4.33;;;3.30;;
2488;SDS011;1255;48.716;9.124;2022-10-31T13:11:06;5.70;;;4.10;;
2488;SDS011;1255;48.716;9.124;2022-10-31T13:13:38;7.13;;;4.07;;
2488;SDS011;1255;48.716;9.124;2022-10-31T13:16:10;5.20;;;3.60;;
2488;SDS011;1255;48.716;9.124;2022-10-31T13:18:42;4.03;;;3.63;;
2488;SDS011;1255;48.716;9.124;2022-10-31T13:21:15;4.37;;;3.37;;
2488;SDS011;1255;48.716;9.124;2022-10-31T13:23:45;4.67;;;3.77;;
2488;SDS011;1255;48.716;9.124;2022-10-31T13:26:16;4.23;;;3.53;;
2488;SDS011;1255;48.716;9.124;2022-10-31T13:28:48;4.33;;;3.37;;
2488;SDS011;1255;48.716;9.124;2022-10-31T13:31:20;7.03;;;3.77;;
2488;SDS011;1255;48.716;9.124;2022-10-31T13:33:48;5.93;;;3.20;;
2488;SDS011;1255;48.716;9.124;2022-10-31T13:36:21;8.17;;;3.43;;
2488;SDS011;1255;48.716;9.124;2022-10-31T13:38:54;4.30;;;3.40;;
2488;SDS011;1255;48.716;9.124;2022-10-31T13:41:30;6.37;;;4.23;;
2488;SDS011;1255;48.716;9.124;2022-10-31T13:44:05;4.63;;;3.50;;
2488;SDS011;1255;48.716;9.124;2022-10-31T13:46:39;5.83;;;4.33;;
2488;SDS011;1255;48.716;9.124;2022-10-31T13:49:21;7.93;;;3.93;;
2488;SDS011;1255;48.716;9.124;2022-10-31T13:51:52;4.27;;;3.40;;
2488;SDS011;1255;48.716;9.124;2022-10-31T13:54:32;6.83;;;3.60;;
2488;SDS011;1255;48.716;9.124;2022-10-31T13:57:00;4.40;;;3.40;;
2488;SDS011;1255;48.716;9.124;2022-10-31T13:59:27;4.90;;;4.17;;
2488;SDS011;1255;48.716;9.124;2022-10-31T14:01:56;5.97;;;4.00;;
2488;SDS011;1255;48.716;9.124;2022-10-31T14:04:28;4.50;;;4.10;;
2488;SDS011;1255;48.716;9.124;2022-10-31T14:07:06;4.23;;;3.50;;
2488;SDS011;1255;48.716;9.124;2022-10-31T14:09:36;5.30;;;3.97;;
2488;SDS011;1255;48.716;9.124;2022-10-31T14:12:06;7.00;;;4.40;;
2488;SDS011;1255;48.716;9.124;2022-10-31T14:14:40;4.33;;;3.93;;
2488;SDS011;1255;48.716;9.124;2022-10-31T14:17:20;5.70;;;4.70;;
2488;SDS011;1255;48.716;9.124;2022-10-31T14:19:59;4.30;;;3.90;;
2488;SDS011;1255;48.716;9.124;2022-10-31T14:22:45;4.80;;;4.30;;
2488;SDS011;1255;48.716;9.124;2022-10-31T14:25:25;6.27;;;4.33;;
2488;SDS011;1255;48.716;9.124;2022-10-31T14:27:52;4.90;;;3.50;;
2488;SDS011;1255;48.716;9.124;2022-10-31T14:30:20;5.17;;;3.57;;
2488;SDS011;1255;48.716;9.124;2022-10-31T14:32:50;7.30;;;3.80;;
2488;SDS011;1255;48.716;9.124;2022-10-31T14:35:20;6.10;;;4.83;;
2488;SDS011;1255;48.716;9.124;2022-10-31T14:40:49;4.90;;;4.47;;
2488;SDS011;1255;48.716;9.124;2022-10-31T14:43:33;4.87;;;3.90;;
2488;SDS011;1255;48.716;9.124;2022-10-31T14:46:11;6.07;;;3.80;;
2488;SDS011;1255;48.716;9.124;2022-10-31T14:48:50;5.00;;;4.20;;
2488;SDS011;1255;48.716;9.124;2022-10-31T14:51:32;5.93;;;3.93;;
2488;SDS011;1255;48.716;9.124;2022-10-31T14:54:04;4.80;;;3.63;;
2488;SDS011;1255;48.716;9.124;2022-10-31T14:56:33;4.40;;;3.77;;
2488;SDS011;1255;48.716;9.124;2022-10-31T14:59:02;3.50;;;3.13;;
2488;SDS011;1255;48.716;9.124;2022-10-31T15:01:34;6.57;;;3.97;;
2488;SDS011;1255;48.716;9.124;2022-10-31T15:04:03;4.60;;;3.30;;
2488;SDS011;1255;48.716;9.124;2022-10-31T15:06:40;3.93;;;3.43;;
2488;SDS011;1255;48.716;9.124;2022-10-31T15:09:21;5.33;;;3.53;;
2488;SDS011;1255;48.716;9.124;2022-10-31T15:11:49;4.83;;;3.53;;
2488;SDS011;1255;48.716;9.124;2022-10-31T15:14:23;5.47;;;4.47;;
2488;SDS011;1255;48.716;9.124;2022-10-31T15:16:51;6.73;;;3.53;;
2488;SDS011;1255;48.716;9.124;2022-10-31T15:19:20;3.97;;;3.57;;
2488;SDS011;1255;48.716;9.124;2022-10-31T15:21:50;5.37;;;3.33;;
2488;SDS011;1255;48.716;9.124;2022-10-31T15:24:17;4.60;;;3.70;;
2488;SDS011;1255;48.716;9.124;2022-10-31T15:26:48;3.80;;;3.30;;
2488;SDS011;1255;48.716;9.124;2022-10-31T15:29:17;5.37;;;3.80;;
2488;SDS011;1255;48.716;9.124;2022-10-31T15:31:50;4.60;;;3.27;;
2488;SDS011;1255;48.716;9.124;2022-10-31T15:34:20;5.30;;;3.57;;
2488;SDS011;1255;48.716;9.124;2022-10-31T15:36:49;5.73;;;3.40;;
2488;SDS011;1255;48.716;9.124;2022-10-31T15:39:16;3.80;;;3.30;;
2488;SDS011;1255;48.716;9.124;2022-10-31T15:41:47;8.50;;;4.27;;
2488;SDS011;1255;48.716;9.124;2022-10-31T15:44:19;4.03;;;3.33;;
2488;SDS011;1255;48.716;9.124;2022-10-31T15:46:52;4.33;;;3.27;;
2488;SDS011;1255;48.716;9.124;2022-10-31T15:49:26;3.57;;;3.10;;
2488;SDS011;1255;48.716;9.124;2022-10-31T15:52:02;3.50;;;3.20;;
2488;SDS011;1255;48.716;9.124;2022-10-31T15:54:32;3.67;;;3.23;;